^^
Saratoga-Weather Station Historical Data
Daily Summary for September 20, 2020 Units:  English    Metric   Both
Daily Weekly Monthly Yearly Custom
  High: Low: Average:
Temperature: 68 °F 45.9 °F 58.1 °F
Dew Point: 44.1 °F 33.3 °F 38.5 °F
Humidity: 75% 33% 51%
Wind Speed: 16.1mph 0mph 3.3mph
Wind Gust: 18mph - -
Wind- - ESE
Pressure: 29.9 in 29.8 in -
Precipitation: 0 in    
Historical Graphs
 
 
Tabular Data for September 20, 2020
Time Temperature Dew Point Pressure Wind Wind Speed Wind Gust Humidity Rainfall Rate (Hourly) solar
00:04 56.1 °F 44.1 °F 29.9 in SE 2.9 mph 11 mph 64% 0 in 0 W/m2
00:09 56.1 °F 44.1 °F 29.9 in East 2.9 mph 4 mph 64% 0 in 0 W/m2
00:14 56.1 °F 44.1 °F 29.9 in ESE 2.9 mph 11 mph 64% 0 in 0 W/m2
00:19 55.9 °F 43.9 °F 29.9 in ENE 0.9 mph 3 mph 64% 0 in 0 W/m2
00:24 55.9 °F 43.9 °F 29.9 in ENE 2.9 mph 11 mph 64% 0 in 0 W/m2
00:29 55.8 °F 43.7 °F 29.9 in Calm   4 mph 64% 0 in 0 W/m2
00:34 55.6 °F 44.1 °F 29.9 in ENE 0.9 mph 3 mph 65% 0 in 0 W/m2
00:40 55.2 °F 44.1 °F 29.9 in NE 0.9 mph 2 mph 66% 0 in 0 W/m2
00:45 54.9 °F 44.1 °F 29.9 in Calm   1 mph 67% 0 in 0 W/m2
00:50 54.7 °F 43.5 °F 29.9 in Calm   6 mph 66% 0 in 0 W/m2
00:55 54.7 °F 43.9 °F 29.9 in Calm   1 mph 67% 0 in 0 W/m2
01:00 54.3 °F 43.5 °F 29.9 in SE 0.9 mph 5 mph 67% 0 in 0 W/m2
01:05 54.1 °F 43.3 °F 29.9 in Calm   1 mph 67% 0 in 0 W/m2
01:10 54 °F 43.3 °F 29.9 in NNW 2 mph 4 mph 67% 0 in 0 W/m2
01:15 53.8 °F 43.5 °F 29.9 in NNE 2 mph 2 mph 68% 0 in 0 W/m2
01:20 53.4 °F 43.2 °F 29.9 in East 0.9 mph 4 mph 68% 0 in 0 W/m2
01:25 53.2 °F 43.3 °F 29.9 in East 0.9 mph 2 mph 69% 0 in 0 W/m2
01:30 53.2 °F 43.3 °F 29.9 in East 2 mph 2 mph 69% 0 in 0 W/m2
01:35 53.1 °F 43.2 °F 29.9 in North 0.9 mph 2 mph 69% 0 in 0 W/m2
01:40 53.1 °F 42.8 °F 29.9 in Calm   1 mph 68% 0 in 0 W/m2
01:45 53.1 °F 43.2 °F 29.9 in ENE 2.9 mph 3 mph 69% 0 in 0 W/m2
01:50 52.9 °F 43.3 °F 29.9 in ENE 0.9 mph 1 mph 70% 0 in 0 W/m2
01:55 52.3 °F 42.8 °F 29.9 in ENE 0.9 mph 3 mph 70% 0 in 0 W/m2
02:00 52.2 °F 43 °F 29.9 in NNE 2.9 mph 4 mph 71% 0 in 0 W/m2
02:05 52 °F 42.8 °F 29.9 in Calm   1 mph 71% 0 in 0 W/m2
02:10 52 °F 42.4 °F 29.9 in ENE 2 mph 2 mph 70% 0 in 0 W/m2
02:15 52 °F 42.4 °F 29.9 in WNW 0.9 mph 2 mph 70% 0 in 0 W/m2
02:20 52 °F 42.4 °F 29.9 in NNE 0.9 mph 4 mph 70% 0 in 0 W/m2
02:25 51.8 °F 42.3 °F 29.9 in Calm   2 mph 70% 0 in 0 W/m2
02:30 51.6 °F 42.1 °F 29.9 in East 2 mph 4 mph 70% 0 in 0 W/m2
02:35 51.6 °F 42.1 °F 29.9 in Calm   1 mph 70% 0 in 0 W/m2
02:40 51.4 °F 41.9 °F 29.9 in NE 3 mph 3 mph 70% 0 in 0 W/m2
02:46 51.3 °F 42.3 °F 29.9 in Calm   1 mph 71% 0 in 0 W/m2
02:51 51.1 °F 42.1 °F 29.9 in NNW 0.9 mph 1 mph 71% 0 in 0 W/m2
02:56 50.7 °F 42.1 °F 29.9 in Calm   2 mph 72% 0 in 0 W/m2
03:01 50.5 °F 41.9 °F 29.9 in Calm   1 mph 72% 0 in 0 W/m2
03:06 50.4 °F 41.7 °F 29.9 in Calm   1 mph 72% 0 in 0 W/m2
03:11 50.2 °F 41.9 °F 29.9 in Calm     73% 0 in 0 W/m2
03:16 49.8 °F 41.9 °F 29.9 in Calm   1 mph 74% 0 in 0 W/m2
03:21 49.5 °F 41.5 °F 29.9 in Calm   1 mph 74% 0 in 0 W/m2
03:26 49.3 °F 41.4 °F 29.9 in Calm   3 mph 74% 0 in 0 W/m2
03:31 49.3 °F 41.4 °F 29.9 in West 0.9 mph 1 mph 74% 0 in 0 W/m2
03:36 49.1 °F 41.2 °F 29.9 in SSW 2 mph 3 mph 74% 0 in 0 W/m2
03:41 48.9 °F 41.4 °F 29.9 in Calm   2 mph 75% 0 in 0 W/m2
03:46 48.7 °F 40.8 °F 29.9 in Calm   3 mph 74% 0 in 0 W/m2
03:51 48.7 °F 40.8 °F 29.9 in West 0.9 mph 1 mph 74% 0 in 0 W/m2
03:56 48.7 °F 40.8 °F 29.9 in West 0.9 mph 2 mph 74% 0 in 0 W/m2
04:01 48.7 °F 40.8 °F 29.9 in Calm   2 mph 74% 0 in 0 W/m2
04:06 48.6 °F 40.6 °F 29.9 in West 0.9 mph 3 mph 74% 0 in 0 W/m2
04:11 48.6 °F 40.6 °F 29.9 in Calm   1 mph 74% 0 in 0 W/m2
04:16 48.4 °F 40.5 °F 29.9 in Calm   1 mph 74% 0 in 0 W/m2
04:21 47.8 °F 40.3 °F 29.9 in West 0.9 mph 1 mph 75% 0 in 0 W/m2
04:26 47.7 °F 40.1 °F 29.9 in Calm   2 mph 75% 0 in 0 W/m2
04:31 47.5 °F 39.9 °F 29.9 in Calm   1 mph 75% 0 in 0 W/m2
04:36 47.1 °F 39.6 °F 29.9 in West 0.9 mph 3 mph 75% 0 in 0 W/m2
04:41 47.1 °F 39.6 °F 29.9 in West 0.9 mph 2 mph 75% 0 in 0 W/m2
04:46 47.1 °F 39.6 °F 29.9 in West 3 mph 3 mph 75% 0 in 0 W/m2
04:51 46.9 °F 39.4 °F 29.9 in Calm   1 mph 75% 0 in 0 W/m2
04:56 46.8 °F 39.2 °F 29.9 in Calm   2 mph 75% 0 in 0 W/m2
05:01 46.8 °F 38.8 °F 29.9 in West 2 mph 2 mph 74% 0 in 0 W/m2
05:06 46.8 °F 39.2 °F 29.9 in SSE 0.9 mph 2 mph 75% 0 in 0 W/m2
05:11 46.6 °F 38.7 °F 29.9 in Calm   1 mph 74% 0 in 0 W/m2
05:16 46.6 °F 38.7 °F 29.9 in South 0.9 mph 1 mph 74% 0 in 0 W/m2
05:21 46.4 °F 38.3 °F 29.9 in West 0.9 mph 3 mph 73% 0 in 0 W/m2
05:27 46.6 °F 38.1 °F 29.9 in ESE 0.9 mph 4 mph 72% 0 in 0 W/m2
05:32 46.8 °F 38.3 °F 29.9 in SSE 0.9 mph 2 mph 72% 0 in 0 W/m2
05:37 46.8 °F 37.9 °F 29.9 in Calm   4 mph 71% 0 in 0 W/m2
05:42 46.8 °F 37.6 °F 29.9 in Calm   3 mph 70% 0 in 0 W/m2
05:47 46.8 °F 37.6 °F 29.9 in Calm   4 mph 70% 0 in 0 W/m2
05:52 46.6 °F 37.8 °F 29.9 in Calm   2 mph 71% 0 in 0 W/m2
05:57 46.6 °F 37.4 °F 29.9 in WNW 0.9 mph 2 mph 70% 0 in 0 W/m2
06:02 46.4 °F 37.2 °F 29.9 in South 0.9 mph 2 mph 70% 0 in 0 W/m2
06:07 46.6 °F 37 °F 29.9 in Calm   2 mph 69% 0 in 0 W/m2
06:12 46.6 °F 37 °F 29.9 in Calm   2 mph 69% 0 in 0 W/m2
06:17 46.6 °F 37 °F 29.9 in NW 0.9 mph 1 mph 69% 0 in 0 W/m2
06:22 46.6 °F 36.5 °F 29.9 in Calm   1 mph 68% 0 in 0 W/m2
06:27 46.6 °F 36.5 °F 29.9 in WNW 0.9 mph 2 mph 68% 0 in 0 W/m2
06:32 46.4 °F 36.9 °F 29.9 in Calm   1 mph 69% 0 in 0 W/m2
06:37 46.2 °F 37 °F 29.9 in Calm   1 mph 70% 0 in 5 W/m2
06:42 46 °F 36.5 °F 29.9 in Calm   1 mph 69% 0 in 7 W/m2
06:47 46.2 °F 36.3 °F 29.9 in Calm   3 mph 68% 0 in 11 W/m2
06:52 46.2 °F 36.3 °F 29.9 in NW 0.9 mph 1 mph 68% 0 in 12 W/m2
06:57 46.2 °F 37 °F 29.9 in Calm   1 mph 70% 0 in 16 W/m2
07:02 46 °F 36.9 °F 29.9 in Calm   1 mph 70% 0 in 18 W/m2
07:07 45.9 °F 36.3 °F 29.9 in Calm   1 mph 69% 0 in 19 W/m2
07:12 45.9 °F 36.3 °F 29.9 in North 2 mph 2 mph 69% 0 in 23 W/m2
07:17 46 °F 36.5 °F 29.9 in North 0.9 mph 1 mph 69% 0 in 25 W/m2
07:22 46.2 °F 36.3 °F 29.9 in Calm   1 mph 68% 0 in 26 W/m2
07:27 46.2 °F 36.7 °F 29.9 in SSE 2 mph 2 mph 69% 0 in 28 W/m2
07:32 46.4 °F 36.5 °F 29.9 in NNW 0.9 mph 1 mph 68% 0 in 30 W/m2
07:37 46.6 °F 36.5 °F 29.9 in Calm   1 mph 68% 0 in 33 W/m2
07:42 46.8 °F 36.7 °F 29.9 in NNE 0.9 mph 2 mph 68% 0 in 39 W/m2
07:47 46.9 °F 36.5 °F 29.9 in East 2 mph 5 mph 67% 0 in 47 W/m2
07:52 47.5 °F 36.7 °F 29.9 in East 0.9 mph 6 mph 66% 0 in 118 W/m2
07:57 48 °F 37.2 °F 29.9 in SE 2.9 mph 9 mph 66% 0 in 142 W/m2
08:03 48.4 °F 37.2 °F 29.9 in ENE 2.9 mph 4 mph 65% 0 in 132 W/m2
08:08 48.9 °F 37.2 °F 29.9 in ENE 4 mph 9 mph 64% 0 in 185 W/m2
08:13 49.3 °F 37.2 °F 29.9 in East 2 mph 7 mph 63% 0 in 197 W/m2
08:18 49.6 °F 37.6 °F 29.9 in East 4 mph 7 mph 63% 0 in 213 W/m2
08:23 49.8 °F 37.8 °F 29.9 in NE 0.9 mph 6 mph 63% 0 in 225 W/m2
08:28 50.4 °F 38.3 °F 29.9 in SSW 0.9 mph 5 mph 63% 0 in 236 W/m2
08:33 50.7 °F 38.1 °F 29.9 in East 2.9 mph 6 mph 62% 0 in 251 W/m2
08:38 51.1 °F 38.5 °F 29.9 in SSE 4 mph 6 mph 62% 0 in 264 W/m2
08:43 51.3 °F 38.7 °F 29.9 in NE 2.9 mph 11 mph 62% 0 in 274 W/m2
08:48 51.3 °F 38.3 °F 29.9 in NE 2.9 mph 8 mph 61% 0 in 290 W/m2
08:53 51.4 °F 38.5 °F 29.9 in WNW 0.9 mph 11 mph 61% 0 in 302 W/m2
08:58 51.6 °F 39 °F 29.9 in ESE 4 mph 9 mph 62% 0 in 313 W/m2
09:03 52 °F 39 °F 29.9 in East 2 mph 7 mph 61% 0 in 325 W/m2
09:08 52.3 °F 39.4 °F 29.9 in East 2.9 mph 4 mph 61% 0 in 339 W/m2
09:13 52.9 °F 39.7 °F 29.9 in ENE 4.9 mph 5 mph 61% 0 in 352 W/m2
09:18 53.2 °F 39.2 °F 29.9 in East 2.9 mph 7 mph 59% 0 in 366 W/m2
09:23 53.6 °F 39.6 °F 29.9 in ENE 2 mph 2 mph 59% 0 in 378 W/m2
09:28 54.1 °F 39.2 °F 29.9 in NE 11 mph 11 mph 57% 0 in 387 W/m2
09:33 54.3 °F 39.4 °F 29.9 in ENE 8.1 mph 9 mph 57% 0 in 403 W/m2
09:38 54.7 °F 39.7 °F 29.9 in ENE 2 mph 8 mph 57% 0 in 415 W/m2
09:43 55.2 °F 39.7 °F 29.9 in SE 0.9 mph 9 mph 56% 0 in 425 W/m2
09:48 55.8 °F 39.4 °F 29.9 in ENE 2.9 mph 10 mph 54% 0 in 350 W/m2
09:53 56.1 °F 40.1 °F 29.9 in SW 2 mph 12 mph 55% 0 in 60 W/m2
09:58 56.7 °F 39.7 °F 29.9 in East 2.9 mph 7 mph 53% 0 in 462 W/m2
10:04 57 °F 39.6 °F 29.9 in SSE 4 mph 5 mph 52% 0 in 473 W/m2
10:09 57 °F 39.6 °F 29.9 in ESE 11 mph 11 mph 52% 0 in 489 W/m2
10:14 57.6 °F 40.1 °F 29.9 in NE 4.9 mph 11 mph 52% 0 in 499 W/m2
10:19 57.7 °F 40.3 °F 29.9 in NNE 6.9 mph 10 mph 52% 0 in 512 W/m2
10:24 58.1 °F 39.6 °F 29.9 in East 2.9 mph 6 mph 50% 0 in 520 W/m2
10:29 58.6 °F 40.1 °F 29.9 in SSE 6 mph 10 mph 50% 0 in 529 W/m2
10:34 58.8 °F 39.2 °F 29.9 in NNE 4.9 mph 13 mph 48% 0 in 543 W/m2
10:39 58.8 °F 39.2 °F 29.9 in NNE 0.9 mph 9 mph 48% 0 in 552 W/m2
10:44 58.8 °F 39.7 °F 29.9 in NNE 6 mph 13 mph 49% 0 in 563 W/m2
10:49 59.4 °F 40.3 °F 29.9 in NNW 0.9 mph 9 mph 49% 0 in 575 W/m2
10:54 59.5 °F 39.4 °F 29.9 in South 4 mph 13 mph 47% 0 in 582 W/m2
10:59 59.5 °F 39.9 °F 29.9 in NE 4.9 mph 11 mph 48% 0 in 592 W/m2
11:04 59.7 °F 39.4 °F 29.9 in NE 4.9 mph 15 mph 47% 0 in 601 W/m2
11:09 60.3 °F 39.4 °F 29.9 in North 0.9 mph 11 mph 46% 0 in 610 W/m2
11:14 60.6 °F 39.7 °F 29.9 in SSE 4 mph 15 mph 46% 0 in 621 W/m2
11:19 60.8 °F 39.9 °F 29.9 in East 6.9 mph 11 mph 46% 0 in 628 W/m2
11:24 60.6 °F 39.2 °F 29.9 in South 0.9 mph 13 mph 45% 0 in 635 W/m2
11:29 61 °F 39.6 °F 29.9 in ENE 4 mph 11 mph 45% 0 in 643 W/m2
11:34 61.2 °F 39 °F 29.9 in NE 12.1 mph 12 mph 44% 0 in 650 W/m2
11:39 61.3 °F 39.2 °F 29.9 in SSE 2.9 mph 9 mph 44% 0 in 661 W/m2
11:44 61.9 °F 40.3 °F 29.9 in ENE 8.9 mph 15 mph 45% 0 in 666 W/m2
11:49 62.1 °F 39.9 °F 29.9 in ESE 4 mph 9 mph 44% 0 in 671 W/m2
11:54 61.9 °F 39.2 °F 29.9 in SSE 4.9 mph 10 mph 43% 0 in 679 W/m2
11:59 62.1 °F 39.9 °F 29.9 in ESE 0.9 mph 6 mph 44% 0 in 687 W/m2
12:04 62.2 °F 40.1 °F 29.9 in SE 4.9 mph 8 mph 44% 0 in 689 W/m2
12:09 62.1 °F 38.7 °F 29.9 in NE 14.1 mph 14 mph 42% 0 in 694 W/m2
12:14 62.1 °F 38.7 °F 29.9 in East 2 mph 8 mph 42% 0 in 700 W/m2
12:19 62.8 °F 39.4 °F 29.9 in North 2 mph 9 mph 42% 0 in 708 W/m2
12:24 63 °F 39.6 °F 29.9 in NE 4 mph 12 mph 42% 0 in 710 W/m2
12:29 63.1 °F 39.7 °F 29.9 in East 2.9 mph 13 mph 42% 0 in 715 W/m2
12:34 63.3 °F 39.9 °F 29.9 in SSW 4.9 mph 12 mph 42% 0 in 717 W/m2
12:39 63.5 °F 39.4 °F 29.9 in East 8.9 mph 9 mph 41% 0 in 719 W/m2
12:44 63.5 °F 39.9 °F 29.9 in ESE 8.1 mph 10 mph 42% 0 in 726 W/m2
12:49 63.5 °F 39.4 °F 29.9 in NE 16.1 mph 16 mph 41% 0 in 728 W/m2
12:54 63.9 °F 40.3 °F 29.9 in South 2 mph 9 mph 42% 0 in 729 W/m2
12:59 64.2 °F 41.2 °F 29.9 in ESE 8.9 mph 16 mph 43% 0 in 733 W/m2
13:04 64.4 °F 40.1 °F 29.9 in East 4 mph 8 mph 41% 0 in 735 W/m2
13:09 64.4 °F 40.8 °F 29.9 in SE 2 mph 15 mph 42% 0 in 738 W/m2
13:14 64.6 °F 40.3 °F 29.9 in ENE 4 mph 11 mph 41% 0 in 742 W/m2
13:19 64.8 °F 41.2 °F 29.9 in SE 4.9 mph 10 mph 42% 0 in 740 W/m2
13:24 64.9 °F 40.1 °F 29.9 in East 2.9 mph 8 mph 40% 0 in 742 W/m2
13:29 65.1 °F 40.3 °F 29.9 in East 2.9 mph 11 mph 40% 0 in 744 W/m2
13:34 65.1 °F 40.3 °F 29.9 in ENE 4.9 mph 11 mph 40% 0 in 742 W/m2
13:39 64.9 °F 40.1 °F 29.9 in East 4 mph 9 mph 40% 0 in 744 W/m2
13:44 64.9 °F 39.4 °F 29.9 in SE 10.1 mph 13 mph 39% 0 in 737 W/m2
13:49 64.8 °F 39.9 °F 29.9 in NE 11 mph 11 mph 40% 0 in 740 W/m2
13:54 64.9 °F 38.7 °F 29.9 in ENE 4.9 mph 10 mph 38% 0 in 735 W/m2
14:00 64.9 °F 39.4 °F 29.9 in SE 2.9 mph 15 mph 39% 0 in 737 W/m2
14:05 65.3 °F 39.7 °F 29.9 in East 6.9 mph 12 mph 39% 0 in 733 W/m2
14:10 65.3 °F 39.7 °F 29.9 in ESE 6 mph 16 mph 39% 0 in 731 W/m2
14:15 65.7 °F 39.4 °F 29.9 in ESE 12.1 mph 12 mph 38% 0 in 729 W/m2
14:20 65.5 °F 38.5 °F 29.9 in East 4 mph 16 mph 37% 0 in 726 W/m2
14:25 65.8 °F 39.6 °F 29.9 in SE 4 mph 10 mph 38% 0 in 726 W/m2
14:30 66 °F 39 °F 29.9 in East 12.1 mph 15 mph 37% 0 in 717 W/m2
14:35 65.8 °F 38.8 °F 29.9 in NNE 8.9 mph 9 mph 37% 0 in 719 W/m2
14:40 65.8 °F 38.8 °F 29.9 in ESE 4 mph 15 mph 37% 0 in 714 W/m2
14:45 65.8 °F 38.8 °F 29.9 in ESE 6.9 mph 10 mph 37% 0 in 707 W/m2
14:50 66.2 °F 38.5 °F 29.9 in East 8.1 mph 16 mph 36% 0 in 698 W/m2
14:55 66.2 °F 39.2 °F 29.9 in ESE 4 mph 9 mph 37% 0 in 696 W/m2
15:00 66.6 °F 38.8 °F 29.9 in East 4 mph 12 mph 36% 0 in 687 W/m2
15:05 66.7 °F 38.3 °F 29.9 in SE 10.1 mph 13 mph 35% 0 in 686 W/m2
15:10 66.7 °F 38.3 °F 29.9 in SSW 0.9 mph 17 mph 35% 0 in 679 W/m2
15:15 66.6 °F 38.1 °F 29.9 in NE 6 mph 9 mph 35% 0 in 671 W/m2
15:20 66.7 °F 38.3 °F 29.9 in ESE 4 mph 16 mph 35% 0 in 668 W/m2
15:25 67.1 °F 38.5 °F 29.8 in NNE 2 mph 9 mph 35% 0 in 661 W/m2
15:30 67.5 °F 38.8 °F 29.9 in ESE 8.9 mph 13 mph 35% 0 in 649 W/m2
15:35 67.6 °F 38.3 °F 29.8 in NE 4.9 mph 18 mph 34% 0 in 642 W/m2
15:40 67.8 °F 38.5 °F 29.8 in ENE 6 mph 7 mph 34% 0 in 640 W/m2
15:45 68 °F 39.4 °F 29.8 in North 2 mph 18 mph 35% 0 in 631 W/m2
15:50 68 °F 38.7 °F 29.8 in ENE 4.9 mph 7 mph 34% 0 in 621 W/m2
15:55 67.8 °F 38.5 °F 29.8 in ESE 4 mph 13 mph 34% 0 in 610 W/m2
16:00 67.6 °F 37.6 °F 29.8 in East 6.9 mph 18 mph 33% 0 in 603 W/m2
16:05 67.5 °F 37.4 °F 29.8 in ESE 4 mph 8 mph 33% 0 in 594 W/m2
16:10 67.6 °F 38.3 °F 29.8 in East 10.1 mph 12 mph 34% 0 in 584 W/m2
16:15 67.5 °F 38.1 °F 29.8 in ESE 4 mph 8 mph 34% 0 in 573 W/m2
16:20 67.6 °F 38.3 °F 29.8 in SE 6.9 mph 7 mph 34% 0 in 563 W/m2
16:25 67.8 °F 38.5 °F 29.8 in East 4 mph 11 mph 34% 0 in 554 W/m2
16:30 68 °F 38.7 °F 29.8 in ESE 2.9 mph 9 mph 34% 0 in 541 W/m2
16:35 67.8 °F 37.6 °F 29.8 in NE 4.9 mph 15 mph 33% 0 in 533 W/m2
16:40 67.5 °F 38.1 °F 29.8 in ESE 4 mph 11 mph 34% 0 in 522 W/m2
16:45 67.6 °F 38.3 °F 29.8 in NE 10.1 mph 11 mph 34% 0 in 512 W/m2
16:50 67.6 °F 38.3 °F 29.8 in NE 2.9 mph 15 mph 34% 0 in 499 W/m2
16:55 67.6 °F 39 °F 29.8 in East 2 mph 9 mph 35% 0 in 487 W/m2
17:00 67.6 °F 38.3 °F 29.8 in ENE 2.9 mph 14 mph 34% 0 in 476 W/m2
17:05 67.5 °F 38.1 °F 29.8 in SE 4.9 mph 13 mph 34% 0 in 464 W/m2
17:10 67.1 °F 37.8 °F 29.8 in ENE 4.9 mph 9 mph 34% 0 in 455 W/m2
17:15 67.1 °F 37.8 °F 29.8 in ESE 2.9 mph 11 mph 34% 0 in 443 W/m2
17:20 67.1 °F 37 °F 29.8 in ENE 8.1 mph 12 mph 33% 0 in 427 W/m2
17:25 67.3 °F 37.9 °F 29.8 in East 2 mph 8 mph 34% 0 in 418 W/m2
17:30 67.6 °F 37.6 °F 29.8 in East 8.1 mph 9 mph 33% 0 in 406 W/m2
17:35 67.6 °F 37.6 °F 29.8 in ENE 4.9 mph 11 mph 33% 0 in 390 W/m2
17:40 67.6 °F 38.3 °F 29.8 in East 2.9 mph 16 mph 34% 0 in 378 W/m2
17:45 67.6 °F 39.7 °F 29.8 in East 8.1 mph 8 mph 36% 0 in 364 W/m2
17:50 67.8 °F 38.5 °F 29.8 in SE 2.9 mph 15 mph 34% 0 in 355 W/m2
17:55 67.6 °F 37.6 °F 29.8 in NE 10.1 mph 11 mph 33% 0 in 341 W/m2
18:00 67.5 °F 38.1 °F 29.8 in East 11 mph 14 mph 34% 0 in 329 W/m2
18:05 67.3 °F 37.9 °F 29.8 in SE 12.1 mph 12 mph 34% 0 in 316 W/m2
18:10 67.1 °F 37.8 °F 29.8 in ENE 4 mph 14 mph 34% 0 in 304 W/m2
18:15 67.5 °F 38.8 °F 29.8 in SE 2 mph 5 mph 35% 0 in 290 W/m2
18:20 67.6 °F 38.3 °F 29.8 in ENE 2 mph 8 mph 34% 0 in 279 W/m2
18:25 67.5 °F 37.4 °F 29.8 in SE 2 mph 13 mph 33% 0 in 264 W/m2
18:30 67.3 °F 37.9 °F 29.8 in ESE 8.9 mph 9 mph 34% 0 in 253 W/m2
18:35 66.9 °F 37.6 °F 29.8 in East 13 mph 13 mph 34% 0 in 241 W/m2
18:40 66.7 °F 37.4 °F 29.8 in SSE 4.9 mph 14 mph 34% 0 in 227 W/m2
18:45 66.6 °F 37.4 °F 29.8 in ESE 2.9 mph 6 mph 34% 0 in 213 W/m2
18:50 66.6 °F 37.4 °F 29.8 in North 2.9 mph 14 mph 34% 0 in 199 W/m2
18:56 66.6 °F 38.1 °F 29.8 in ENE 2 mph 5 mph 35% 0 in 183 W/m2
19:01 66.4 °F 37.2 °F 29.8 in SE 8.9 mph 13 mph 34% 0 in 171 W/m2
19:06 66.2 °F 37 °F 29.8 in East 2.9 mph 14 mph 34% 0 in 158 W/m2
19:11 66 °F 36.9 °F 29.8 in ENE 8.9 mph 11 mph 34% 0 in 144 W/m2
19:16 66 °F 36.9 °F 29.8 in NE 13 mph 13 mph 34% 0 in 125 W/m2
19:21 66 °F 36.9 °F 29.8 in East 4 mph 8 mph 34% 0 in 113 W/m2
19:26 65.8 °F 36.7 °F 29.8 in East 4 mph 11 mph 34% 0 in 100 W/m2
19:31 65.7 °F 36.5 °F 29.8 in NNE 2 mph 6 mph 34% 0 in 88 W/m2
19:36 65.5 °F 36.3 °F 29.8 in NE 6.9 mph 9 mph 34% 0 in 74 W/m2
19:41 65.1 °F 36.1 °F 29.8 in East 2 mph 7 mph 34% 0 in 60 W/m2
19:46 64.9 °F 35.1 °F 29.8 in NE 11 mph 13 mph 33% 0 in 51 W/m2
19:51 64.8 °F 35.8 °F 29.8 in East 0.9 mph 9 mph 34% 0 in 46 W/m2
19:56 64.6 °F 36.3 °F 29.8 in ENE 2 mph 11 mph 35% 0 in 39 W/m2
20:01 64.6 °F 35.6 °F 29.8 in Calm   4 mph 34% 0 in 25 W/m2
20:06 64.2 °F 35.2 °F 29.8 in ENE 2.9 mph 8 mph 34% 0 in 21 W/m2
20:11 64 °F 35.1 °F 29.8 in ENE 2 mph 6 mph 34% 0 in 18 W/m2
20:16 63.9 °F 34.9 °F 29.8 in NE 2.9 mph 10 mph 34% 0 in 14 W/m2
20:21 63.7 °F 34.7 °F 29.8 in ENE 4.9 mph 8 mph 34% 0 in 11 W/m2
20:26 63.5 °F 34.7 °F 29.8 in NNE 8.9 mph 9 mph 34% 0 in 7 W/m2
20:31 63.1 °F 34.3 °F 29.8 in ESE 0.9 mph 3 mph 34% 0 in 5 W/m2
20:36 63.1 °F 34.3 °F 29.9 in NE 2 mph 7 mph 34% 0 in 0 W/m2
20:41 63 °F 34.2 °F 29.9 in ENE 8.1 mph 8 mph 34% 0 in 0 W/m2
20:46 62.8 °F 34.7 °F 29.9 in NE 2.9 mph 3 mph 35% 0 in 0 W/m2
20:51 62.6 °F 34.5 °F 29.9 in ESE 2.9 mph 6 mph 35% 0 in 0 W/m2
20:56 62.4 °F 34.3 °F 29.9 in ENE 4.9 mph 7 mph 35% 0 in 0 W/m2
21:01 62.2 °F 34.2 °F 29.9 in SSE 0.9 mph 11 mph 35% 0 in 0 W/m2
21:06 62.1 °F 34.9 °F 29.9 in ESE 2.9 mph 3 mph 36% 0 in 0 W/m2
21:11 61.9 °F 34 °F 29.9 in East 2 mph 8 mph 35% 0 in 0 W/m2
21:16 61.9 °F 34.7 °F 29.9 in ENE 2.9 mph 6 mph 36% 0 in 0 W/m2
21:21 61.5 °F 34.3 °F 29.9 in ENE 4.9 mph 5 mph 36% 0 in 0 W/m2
21:26 61.3 °F 34.2 °F 29.9 in East 2.9 mph 11 mph 36% 0 in 0 W/m2
21:31 61.2 °F 34.7 °F 29.9 in NE 2 mph 4 mph 37% 0 in 0 W/m2
21:36 61 °F 34.5 °F 29.9 in East 6.9 mph 11 mph 37% 0 in 0 W/m2
21:41 61 °F 33.8 °F 29.9 in SE 2 mph 7 mph 36% 0 in 0 W/m2
21:46 60.8 °F 34.3 °F 29.9 in ENE 4 mph 4 mph 37% 0 in 0 W/m2
21:52 60.6 °F 34.2 °F 29.9 in ESE 2 mph 3 mph 37% 0 in 0 W/m2
21:57 60.4 °F 34 °F 29.9 in SE 0.9 mph 3 mph 37% 0 in 0 W/m2
22:02 60.3 °F 34.5 °F 29.9 in Calm   5 mph 38% 0 in 0 W/m2
22:07 60.3 °F 34.5 °F 29.9 in Calm   4 mph 38% 0 in 0 W/m2
22:12 60.1 °F 34.3 °F 29.9 in ESE 2 mph 4 mph 38% 0 in 0 W/m2
22:17 59.9 °F 34.9 °F 29.9 in ESE 2 mph 6 mph 39% 0 in 0 W/m2
22:22 59.7 °F 34 °F 29.9 in East 4 mph 6 mph 38% 0 in 0 W/m2
22:27 59.7 °F 34 °F 29.9 in Calm   2 mph 38% 0 in 0 W/m2
22:32 59.5 °F 34 °F 29.9 in ESE 4 mph 6 mph 38% 0 in 0 W/m2
22:37 59.5 °F 34 °F 29.9 in East 2 mph 3 mph 38% 0 in 0 W/m2
22:42 59.4 °F 33.8 °F 29.9 in NE 2.9 mph 9 mph 38% 0 in 0 W/m2
22:47 59.5 °F 34 °F 29.9 in ENE 2.9 mph 10 mph 38% 0 in 0 W/m2
22:52 59.5 °F 34 °F 29.9 in ENE 2.9 mph 5 mph 38% 0 in 0 W/m2
22:57 59.5 °F 34 °F 29.9 in ESE 2.9 mph 10 mph 38% 0 in 0 W/m2
23:02 59.4 °F 34.3 °F 29.9 in East 0.9 mph 4 mph 39% 0 in 0 W/m2
23:07 59.2 °F 33.6 °F 29.9 in SSE 2.9 mph 8 mph 38% 0 in 0 W/m2
23:12 59.2 °F 34.2 °F 29.9 in ESE 2 mph 7 mph 39% 0 in 0 W/m2
23:17 59 °F 34.2 °F 29.9 in SE 4 mph 5 mph 39% 0 in 0 W/m2
23:22 59 °F 33.4 °F 29.9 in Calm   8 mph 38% 0 in 0 W/m2
23:27 58.8 °F 34 °F 29.9 in East 8.1 mph 10 mph 39% 0 in 0 W/m2
23:32 59 °F 33.4 °F 29.9 in ENE 4 mph 9 mph 38% 0 in 0 W/m2
23:37 59 °F 33.4 °F 29.9 in East 6.9 mph 9 mph 38% 0 in 0 W/m2
23:42 58.8 °F 33.3 °F 29.9 in NNE 4.9 mph 10 mph 38% 0 in 0 W/m2
23:47 58.8 °F 33.3 °F 29.9 in East 2 mph 10 mph 38% 0 in 0 W/m2
23:52 58.6 °F 33.8 °F 29.9 in East 0.9 mph 6 mph 39% 0 in 0 W/m2
23:57 58.6 °F 33.8 °F 29.9 in SE 4 mph 9 mph 39% 0 in 0 W/m2
Juneau County Weather
Compliments of Weather Underground - 2 mb